Terminal Aerodrome Forecast
Issued by NWS Blacksburg, VA

Home | Current Version | Previous Version | Text Only | Print | Product List | Glossary On
Versions: 1 2 3 4 5 6 7 8 9 10 11 12 13 14 15 16 17 18 19 20 21 22 23 24 25 26 27 28 29 30
000
FTUS41 KRNK 252032 AAA
TAFBLF
TAF AMD
KBLF 252032Z 2521/2618 13008KT P6SM SCT012 OVC025
      TEMPO 2521/2523 SCT007 OVC012
     FM252300 23012KT 3SM -RADZ BR OVC005
      TEMPO 2605/2609 2SM TSRA BR SCT005 OVC012CB
     FM261500 33007KT P6SM BKN007 OVC012=

USA.gov is the U.S. government's official web portal to all federal, state and local government web resources and services.